16 agosto 2022

Tempo Codice Tempo metereologico Temp. Vista Base nuvolosa Vento METAR/SPECI
14:20
V
29 °C 10 km+ - 240° 240° 9 kt METAR EDLV 161220Z 24009KT 210V270 CAVOK 29/13 Q1008
13:50
V
30 °C 10 km+ - 210° 210° 10 kt METAR EDLV 161150Z 21010KT 160V270 CAVOK 30/14 Q1008
13:20
V
28 °C 10 km+ - 240° 240° 9 kt METAR EDLV 161120Z 24009KT 210V270 CAVOK 28/15 Q1008
12:50
V
29 °C 10 km+ - 230° 230° 9 kt METAR EDLV 161050Z 23009KT 190V270 CAVOK 29/15 Q1008
12:20
V
27 °C 10 km+ - 250° 250° 10 kt METAR EDLV 161020Z 25010KT 210V300 9999 FEW041 27/16 Q1008
11:50
V
27 °C 10 km+ - 200° 200° 9 kt METAR EDLV 160950Z 20009KT 160V250 CAVOK 27/16 Q1008
11:20
V
26 °C 10 km+ - 220° 220° 9 kt METAR EDLV 160920Z 22009KT 170V250 CAVOK 26/17 Q1008
10:50
V
26 °C 10 km+ - 220° 220° 8 kt METAR EDLV 160850Z 22008KT 180V250 CAVOK 26/17 Q1008
10:20
V
25 °C 10 km+ - 210° 210° 8 kt METAR EDLV 160820Z 21008KT 180V240 CAVOK 25/16 Q1008
09:50
V
23 °C 10 km+ - 200° 200° 6 kt METAR EDLV 160750Z 20006KT 170V280 CAVOK 23/16 Q1007
09:20
V
22 °C 10 km+ - 200° 200° 5 kt METAR EDLV 160720Z 20005KT 160V250 CAVOK 22/17 Q1007
08:50
V
21 °C 10 km+ - 200° 200° 5 kt METAR EDLV 160650Z 20005KT 160V230 CAVOK 21/16 Q1007
08:20
V
20 °C 10 km+ - 180° 180° 3 kt METAR EDLV 160620Z 18003KT 140V230 CAVOK 20/16 Q1007
07:50
V
19 °C 10 km+ - 190° 190° 3 kt METAR EDLV 160550Z 19003KT 150V230 CAVOK 19/16 Q1007
07:20
V
18 °C 10 km+ - 210° 210° 4 kt METAR EDLV 160520Z 21004KT 180V260 CAVOK 18/15 Q1007
06:50
V
18 °C 10 km+ - 210° 210° 4 kt METAR EDLV 160450Z 21004KT CAVOK 18/15 Q1007
06:20
V
17 °C 10 km+ - 210° 210° 5 kt METAR EDLV 160420Z 21005KT CAVOK 17/15 Q1006
05:50
V
17 °C 10 km+ - Var Var 2 kt METAR EDLV 160350Z VRB02KT CAVOK 17/15 Q1006
05:20
V
18 °C 10 km+ - 210° 210° 4 kt METAR EDLV 160320Z 21004KT 170V240 CAVOK 18/15 Q1006
04:50
V
18 °C 10 km+ - 210° 210° 4 kt METAR EDLV 160250Z 21004KT CAVOK 18/15 Q1006
04:20
V
18 °C 10 km+ - 220° 220° 4 kt METAR EDLV 160220Z AUTO 22004KT 9999 // NCD 18/15 Q1006
03:50
V
18 °C 10 km+ - 200° 200° 3 kt METAR EDLV 160150Z AUTO 20003KT 9999 // FEW120/// 18/16 Q1006
03:20
V
19 °C 10 km+ 12.000 ft 160° 160° 4 kt METAR EDLV 160120Z AUTO 16004KT 9999 // BKN120/// BKN140/// 19/16 Q1006
02:50
V
19 °C 10 km+ 11.000 ft 140° 140° 4 kt METAR EDLV 160050Z AUTO 14004KT 9999 // BKN110/// 19/16 Q1006
02:20
V
19 °C 10 km+ 12.000 ft 170° 170° 4 kt METAR EDLV 160020Z AUTO 17004KT 9999 // BKN120/// 19/16 Q1006
01:50
V
19 °C 10 km+ 14.000 ft Var Var 2 kt METAR EDLV 152350Z AUTO VRB02KT 9999 // FEW110/// BKN140/// 19/16 Q1006
01:20
V
20 °C 10 km+ 11.000 ft Var Var 1 kt METAR EDLV 152320Z AUTO VRB01KT 9999 // BKN110/// OVC140/// 20/16 Q1006
00:50
V
20 °C 10 km+ 10.000 ft Var Var 2 kt METAR EDLV 152250Z AUTO VRB02KT 9999 // BKN100/// 20/16 Q1006
00:20
V
20 °C 10 km+ 11.000 ft 170° 170° 3 kt METAR EDLV 152220Z AUTO 17003KT 9999 // OVC110/// 20/16 Q1006

15 agosto 2022

Tempo Codice Tempo metereologico Temp. Vista Base nuvolosa Vento METAR/SPECI
23:50
V
21 °C 10 km+ - Var Var 1 kt METAR EDLV 152150Z VRB01KT CAVOK 21/16 Q1006
22:50
V
22 °C 10 km+ - 210° 210° 5 kt METAR EDLV 152050Z 21005KT CAVOK 22/16 Q1006
22:20
V
22 °C 10 km+ - 200° 200° 4 kt METAR EDLV 152020Z 20004KT CAVOK 22/16 Q1005
21:50
V
22 °C 10 km+ - 190° 190° 4 kt METAR EDLV 151950Z 19004KT CAVOK 22/17 Q1005
21:20
V
23 °C 10 km+ - 210° 210° 5 kt METAR EDLV 151920Z 21005KT CAVOK 23/16 Q1005
20:50
V
24 °C 10 km+ - 210° 210° 6 kt METAR EDLV 151850Z 21006KT CAVOK 24/16 Q1005
20:20
V
25 °C 10 km+ - 210° 210° 5 kt METAR EDLV 151820Z 21005KT 180V240 CAVOK 25/16 Q1005
19:50
V
25 °C 10 km+ - 200° 200° 3 kt METAR EDLV 151750Z 20003KT 160V240 CAVOK 25/16 Q1004
19:20
V
25 °C 10 km+ - 220° 220° 4 kt METAR EDLV 151720Z 22004KT 170V260 CAVOK 25/16 Q1004
18:50
V
26 °C 10 km+ - 210° 210° 7 kt METAR EDLV 151650Z 21007KT 180V240 9999 FEW039 26/16 Q1004
18:20
V
26 °C 10 km+ - 200° 200° 7 kt METAR EDLV 151620Z 20007KT 160V230 9999 FEW040 26/16 Q1004
17:50
V
27 °C 10 km+ - 250° 250° 6 kt METAR EDLV 151550Z 25006KT 220V290 CAVOK 27/17 Q1004
17:20
V
26 °C 10 km+ - 250° 250° 6 kt METAR EDLV 151520Z 25006KT 190V290 CAVOK 26/17 Q1004
16:50
V
26 °C 10 km+ - 230° 230° 5 kt METAR EDLV 151450Z 23005KT 180V270 CAVOK 26/17 Q1004
16:20
V
25 °C 10 km+ - 230° 230° 6 kt METAR EDLV 151420Z 23006KT 180V260 CAVOK 25/17 Q1004
15:50
V
25 °C 10 km+ - 210° 210° 8 kt METAR EDLV 151350Z 21008KT 190V250 CAVOK 25/17 Q1005
15:20
V
24 °C 10 km+ - 220° 220° 6 kt METAR EDLV 151320Z 22006KT 180V250 CAVOK 24/17 Q1005
14:50
V
24 °C 10 km+ - 210° 210° 6 kt METAR EDLV 151250Z 21006KT 180V260 CAVOK 24/17 Q1005
14:20
V
25 °C 10 km+ - 220° 220° 9 kt METAR EDLV 151220Z 22009KT 9999 FEW029 SCT037 25/18 Q1005
13:50
V
24 °C 10 km+ - 220° 220° 8 kt METAR EDLV 151150Z 22008KT 190V260 9999 FEW036 24/17 Q1004
13:20
V
24 °C 10 km+ - 210° 210° 8 kt METAR EDLV 151120Z 21008KT 180V250 CAVOK 24/17 Q1004
12:50
V
23 °C 10 km+ - 220° 220° 8 kt METAR EDLV 151050Z 22008KT 170V260 CAVOK 23/17 Q1004
12:20
V
24 °C 10 km+ - 220° 220° 8 kt METAR EDLV 151020Z 22008KT 180V250 CAVOK 24/17 Q1004
11:50
V
23 °C 10 km+ - 210° 210° 7 kt METAR EDLV 150950Z 21007KT 180V240 9999 FEW032 23/17 Q1004
11:20
V
23 °C 10 km+ - 210° 210° 6 kt METAR EDLV 150920Z 21006KT CAVOK 23/16 Q1004
10:50
V
23 °C 10 km+ - 240° 240° 7 kt METAR EDLV 150850Z 24007KT CAVOK 23/16 Q1004
10:20
V
23 °C 10 km+ - 220° 220° 7 kt METAR EDLV 150820Z 22007KT 190V250 CAVOK 23/15 Q1004
09:50
V
23 °C 10 km+ - 220° 220° 8 kt METAR EDLV 150750Z 22008KT CAVOK 23/15 Q1004
09:20
V
22 °C 10 km+ - 230° 230° 8 kt METAR EDLV 150720Z 23008KT CAVOK 22/15 Q1004
08:50
V
22 °C 10 km+ - 230° 230° 7 kt METAR EDLV 150650Z 23007KT 210V270 CAVOK 22/15 Q1003
08:20
V
21 °C 10 km+ - 220° 220° 9 kt METAR EDLV 150620Z 22009KT CAVOK 21/15 Q1004
07:50
V
21 °C 10 km+ - 230° 230° 8 kt METAR EDLV 150550Z 23008KT CAVOK 21/14 Q1003
07:20
V
20 °C 10 km+ - 220° 220° 7 kt METAR EDLV 150520Z 22007KT CAVOK 20/13 Q1003
06:50
V
20 °C 10 km+ - 220° 220° 7 kt METAR EDLV 150450Z 22007KT CAVOK 20/13 Q1003
06:20
V
20 °C 10 km+ - 220° 220° 8 kt METAR EDLV 150420Z 22008KT CAVOK 20/13 Q1003
05:50
V
19 °C 10 km+ - 210° 210° 7 kt METAR EDLV 150350Z 21007KT CAVOK 19/13 Q1003
05:20
V
19 °C 10 km+ - 200° 200° 6 kt METAR EDLV 150320Z 20006KT CAVOK 19/14 Q1003
04:50
V
20 °C 10 km+ - 200° 200° 5 kt METAR EDLV 150250Z 20005KT CAVOK 20/15 Q1003
04:20
V
20 °C 10 km+ 22.000 ft 160° 160° 4 kt METAR EDLV 150220Z AUTO 16004KT 9999 // BKN220/// 20/15 Q1003
03:50
V
20 °C 10 km+ 23.000 ft 150° 150° 4 kt METAR EDLV 150150Z AUTO 15004KT 9999 // BKN230/// 20/16 Q1003
03:20
V
21 °C 10 km+ 22.000 ft 140° 140° 3 kt METAR EDLV 150120Z AUTO 14003KT 9999 // BKN220/// 21/15 Q1003
02:50
V
21 °C 10 km+ 23.000 ft 130° 130° 4 kt METAR EDLV 150050Z AUTO 13004KT 9999 // BKN230/// 21/16 Q1003
02:20
V
22 °C 10 km+ 23.000 ft 110° 110° 5 kt METAR EDLV 150020Z AUTO 11005KT 070V150 9999 // BKN230/// 22/15 Q1003
01:50
V
24 °C 10 km+ 24.000 ft 090° 090° 4 kt METAR EDLV 142350Z AUTO 09004KT 050V130 9999 // BKN240/// 24/15 Q1003
01:20
V
23 °C 10 km+ 24.000 ft 080° 080° 3 kt METAR EDLV 142320Z AUTO 08003KT 030V120 9999 // BKN240/// 23/16 Q1003
00:50
V
24 °C 10 km+ 25.000 ft 070° 070° 3 kt METAR EDLV 142250Z AUTO 07003KT 020V100 9999 // FEW110/// BKN250/// 24/15 Q1003
00:20
V
23 °C 10 km+ 25.000 ft 060° 060° 3 kt METAR EDLV 142220Z AUTO 06003KT 020V100 9999 // FEW120/// BKN250/// 23/15 Q1004

14 agosto 2022

Tempo Codice Tempo metereologico Temp. Vista Base nuvolosa Vento METAR/SPECI
23:50
V
24 °C 10 km+ - 050° 050° 3 kt METAR EDLV 142150Z AUTO 05003KT 030V090 9999 // FEW094/// 24/15 Q1004
23:20
V
25 °C 10 km+ - Var Var 2 kt METAR EDLV 142120Z VRB02KT CAVOK 25/15 Q1004
22:50
V
26 °C 10 km+ - Var Var 2 kt METAR EDLV 142050Z VRB02KT CAVOK 26/15 Q1004
22:20
V
26 °C 10 km+ - 040° 040° 2 kt METAR EDLV 142020Z 04002KT CAVOK 26/15 Q1004
21:50
V
27 °C 10 km+ - 030° 030° 3 kt METAR EDLV 141950Z 03003KT CAVOK 27/15 Q1004
21:20
V
27 °C 10 km+ - 030° 030° 3 kt METAR EDLV 141920Z 03003KT CAVOK 27/14 Q1004
20:50
V
28 °C 10 km+ - 040° 040° 2 kt METAR EDLV 141850Z 04002KT CAVOK 28/14 Q1004
20:20
V
29 °C 10 km+ - 040° 040° 2 kt METAR EDLV 141820Z 04002KT CAVOK 29/14 Q1004
19:50
V
30 °C 10 km+ - Var Var 2 kt METAR EDLV 141750Z VRB02KT CAVOK 30/14 Q1004
19:20
V
30 °C 10 km+ - Var Var 2 kt METAR EDLV 141720Z VRB02KT CAVOK 30/14 Q1004
18:50
V
31 °C 10 km+ - 030° 030° 3 kt METAR EDLV 141650Z 03003KT 320V090 CAVOK 31/13 Q1005
18:20
V
31 °C 10 km+ - 060° 060° 4 kt METAR EDLV 141620Z 06004KT 350V140 CAVOK 31/12 Q1005
17:50
V
32 °C 10 km+ - Var Var 3 kt METAR EDLV 141550Z VRB03KT CAVOK 32/11 Q1005
17:20
V
32 °C 10 km+ - 190° 190° 6 kt METAR EDLV 141520Z 19006KT 150V230 CAVOK 32/13 Q1005
16:50
V
32 °C 10 km+ - Var Var 5 kt METAR EDLV 141450Z VRB05KT CAVOK 32/13 Q1006
16:20
V
31 °C 10 km+ - Var Var 3 kt METAR EDLV 141420Z VRB03KT CAVOK 31/13 Q1006
15:50
V
32 °C 10 km+ - 090° 090° 5 kt METAR EDLV 141350Z 09005KT 020V150 CAVOK 32/13 Q1006
15:20
V
31 °C 10 km+ - Var Var 5 kt METAR EDLV 141320Z VRB05KT CAVOK 31/12 Q1006
14:50
V
31 °C 10 km+ - Var Var 6 kt METAR EDLV 141250Z VRB06KT CAVOK 31/12 Q1007
Dati più vecchi

Noi e le terze parti seguiamo il tuo comportamento in internet sul nostro sito web con i cookie. Se continui, riteniamo che tu sia d'accordo con la nostra politica sui cookie. Per saperne di più